Time;durP1;ratioP1;P1;durP2;ratioP2;P2;SDS_P1;SDS_P2;PMS_P1;PMS_P2;Temp;Humidity;BMP_temperature;BMP_pressure;BME280_temperature;BME280_humidity;BME280_pressure;Samples;Min_cycle;Max_cycle;Signal;HPM_P1;HPM_P2
2021/06/13 00:01:49;;;;;;;;;;;20.60;67.40;;;;;;5033092;28;1283;-71
2021/06/13 00:04:15;;;;;;;;;;;20.60;67.40;;;;;;5033161;28;1040;-70
2021/06/13 00:06:40;;;;;;;;;;;20.70;67.40;;;;;;5033081;28;1095;-70
2021/06/13 00:09:06;;;;;;;;;;;20.60;67.40;;;;;;5032150;28;1068;-71
2021/06/13 00:11:31;;;;;;;;;;;20.70;67.40;;;;;;5031660;28;1284;-70
2021/06/13 00:13:57;;;;;;;;;;;20.60;67.40;;;;;;5032950;28;1142;-70
2021/06/13 00:16:22;;;;;;;;;;;20.70;67.40;;;;;;5032754;28;1953;-71
2021/06/13 00:18:48;;;;;;;;;;;20.70;67.50;;;;;;5033179;28;1064;-70
2021/06/13 00:21:13;;;;;;;;;;;20.70;67.40;;;;;;5026833;28;1287;-70
2021/06/13 00:23:40;;;;;;;;;;;20.70;67.50;;;;;;5032843;28;1158;-70
2021/06/13 00:26:06;;;;;;;;;;;20.60;67.30;;;;;;5024758;28;1166;-71
2021/06/13 00:28:31;;;;;;;;;;;20.70;67.50;;;;;;5031540;28;1071;-70
2021/06/13 00:30:57;;;;;;;;;;;20.60;67.40;;;;;;5032461;28;1346;-70
2021/06/13 00:33:22;;;;;;;;;;;20.60;67.40;;;;;;5031472;28;1087;-70
2021/06/13 00:35:48;;;;;;;;;;;20.60;67.40;;;;;;5032729;28;1961;-71
2021/06/13 00:38:13;;;;;;;;;;;20.70;67.40;;;;;;5033092;28;1154;-70
2021/06/13 00:40:38;;;;;;;;;;;20.70;67.50;;;;;;5032585;28;1252;-71
2021/06/13 00:43:04;;;;;;;;;;;20.70;67.50;;;;;;5032675;28;1131;-70
2021/06/13 00:45:29;;;;;;;;;;;20.60;67.30;;;;;;5019376;28;1138;-70
2021/06/13 00:47:55;;;;;;;;;;;20.70;67.40;;;;;;5032764;28;1067;-71
2021/06/13 00:50:28;;;;;;;;;;;20.70;67.40;;;;;;5033733;28;1358;-71
2021/06/13 00:52:54;;;;;;;;;;;20.70;67.40;;;;;;5036755;28;1091;-71
2021/06/13 00:55:19;;;;;;;;;;;20.70;67.50;;;;;;5036595;28;1895;-71
2021/06/13 00:57:45;;;;;;;;;;;20.70;67.50;;;;;;5035416;28;1059;-71
2021/06/13 01:00:10;;;;;;;;;;;20.70;67.50;;;;;;5036343;28;996;-71
2021/06/13 01:02:36;;;;;;;;;;;20.70;67.40;;;;;;5036717;28;1287;-70
2021/06/13 01:05:01;;;;;;;;;;;20.70;67.50;;;;;;5028192;28;1218;-71
2021/06/13 01:07:35;;;;;;;;;;;20.70;67.50;;;;;;5035428;28;1146;-70
2021/06/13 01:10:19;;;;;;;;;;;20.70;67.50;;;;;;5018878;28;1147;-71
2021/06/13 01:12:48;;;;;;;;;;;20.60;67.40;;;;;;5051672;28;1351;-71
2021/06/13 01:15:18;;;;;;;;;;;20.70;67.50;;;;;;5035083;28;1974;-71
2021/06/13 01:17:46;;;;;;;;;;;20.70;67.50;;;;;;5035168;28;1100;-71
2021/06/13 01:20:16;;;;;;;;;;;20.70;67.50;;;;;;5033396;28;1087;-71
2021/06/13 01:23:01;;;;;;;;;;;20.70;67.50;;;;;;5062301;22;3329;-68
2021/06/13 01:25:28;;;;;;;;;;;20.70;67.50;;;;;;5054207;28;1502;-65
2021/06/13 01:27:59;;;;;;;;;;;20.70;67.50;;;;;;5042670;28;1407;-65
2021/06/13 01:30:25;;;;;;;;;;;20.70;67.50;;;;;;5055783;28;1353;-67
2021/06/13 01:32:50;;;;;;;;;;;20.70;67.60;;;;;;5037168;28;1404;-66
2021/06/13 01:35:16;;;;;;;;;;;20.70;67.50;;;;;;5034226;28;2013;-65
2021/06/13 01:37:42;;;;;;;;;;;20.60;67.50;;;;;;5035867;28;1142;-66
2021/06/13 01:40:11;;;;;;;;;;;20.70;67.40;;;;;;5034279;28;1369;-65
2021/06/13 01:42:38;;;;;;;;;;;20.70;67.60;;;;;;5034328;28;1480;-65
2021/06/13 01:45:05;;;;;;;;;;;20.70;67.50;;;;;;5033912;28;1385;-65
2021/06/13 01:47:30;;;;;;;;;;;20.70;67.40;;;;;;5050621;28;1401;-66
2021/06/13 01:49:55;;;;;;;;;;;20.70;67.50;;;;;;5033975;28;1665;-65
2021/06/13 01:52:21;;;;;;;;;;;20.70;67.50;;;;;;5034220;28;1709;-65
2021/06/13 01:54:46;;;;;;;;;;;20.70;67.50;;;;;;5033455;28;1379;-66
2021/06/13 01:57:12;;;;;;;;;;;20.70;67.50;;;;;;5033571;28;1963;-65
2021/06/13 01:59:41;;;;;;;;;;;20.70;67.40;;;;;;5033932;28;1653;-65
2021/06/13 02:02:06;;;;;;;;;;;20.70;67.50;;;;;;5033520;28;1294;-65
2021/06/13 02:04:31;;;;;;;;;;;20.70;67.60;;;;;;5039250;28;1710;-65
2021/06/13 02:06:58;;;;;;;;;;;20.60;67.50;;;;;;5033989;28;1366;-67
2021/06/13 02:09:26;;;;;;;;;;;20.60;67.40;;;;;;5033512;28;1390;-67
2021/06/13 02:11:52;;;;;;;;;;;20.70;67.50;;;;;;5034898;28;1486;-65
2021/06/13 02:14:21;;;;;;;;;;;20.70;67.50;;;;;;5049629;28;1646;-65
2021/06/13 02:16:47;;;;;;;;;;;20.60;67.50;;;;;;5021121;28;1979;-65
2021/06/13 02:19:13;;;;;;;;;;;20.60;67.40;;;;;;5031202;28;1483;-65
2021/06/13 02:21:40;;;;;;;;;;;20.70;67.50;;;;;;5023693;28;1354;-65
2021/06/13 02:24:06;;;;;;;;;;;20.70;67.50;;;;;;5030589;28;1232;-66
2021/06/13 02:26:31;;;;;;;;;;;20.70;67.60;;;;;;5041282;28;1259;-67
2021/06/13 02:28:57;;;;;;;;;;;20.70;67.60;;;;;;5041842;28;1343;-65
2021/06/13 02:31:23;;;;;;;;;;;20.70;67.60;;;;;;5039809;28;1374;-66
2021/06/13 02:33:49;;;;;;;;;;;20.70;67.60;;;;;;5027728;28;1173;-65
2021/06/13 02:36:14;;;;;;;;;;;20.60;67.50;;;;;;5021178;28;1906;-66
2021/06/13 02:38:40;;;;;;;;;;;20.60;67.50;;;;;;5030424;28;1255;-66
2021/06/13 02:41:05;;;;;;;;;;;20.60;67.40;;;;;;5031348;28;1288;-67
2021/06/13 02:43:30;;;;;;;;;;;20.70;67.40;;;;;;5026267;28;1219;-67
2021/06/13 02:45:56;;;;;;;;;;;20.70;67.40;;;;;;5030173;28;1279;-66
2021/06/13 02:48:22;;;;;;;;;;;20.70;67.40;;;;;;5029284;28;1195;-67
2021/06/13 02:50:48;;;;;;;;;;;20.70;67.60;;;;;;5031534;28;1291;-67
2021/06/13 02:53:42;;;;;;;;;;;20.60;67.40;;;;;;5029798;28;1272;-67
2021/06/13 02:56:26;;;;;;;;;;;20.70;67.40;;;;;;5021370;28;1895;-67
2021/06/13 02:59:11;;;;;;;;;;;20.60;67.30;;;;;;5022493;28;1175;-66
2021/06/13 03:01:37;;;;;;;;;;;20.60;67.40;;;;;;5020860;28;1339;-66
2021/06/13 03:04:03;;;;;;;;;;;20.60;67.40;;;;;;5023093;28;1212;-67
2021/06/13 03:06:29;;;;;;;;;;;20.60;67.30;;;;;;5041005;28;1330;-66
2021/06/13 03:08:54;;;;;;;;;;;20.60;67.30;;;;;;5028431;28;1279;-66
2021/06/13 03:11:19;;;;;;;;;;;20.70;67.40;;;;;;5012593;28;1348;-66
2021/06/13 03:13:46;;;;;;;;;;;20.60;67.20;;;;;;5023923;28;1150;-66
2021/06/13 03:16:12;;;;;;;;;;;20.60;67.30;;;;;;5032101;28;1981;-67
2021/06/13 03:18:37;;;;;;;;;;;20.60;67.40;;;;;;5032537;28;1068;-66
2021/06/13 03:21:03;;;;;;;;;;;20.60;67.30;;;;;;5026612;28;1268;-67
2021/06/13 03:23:30;;;;;;;;;;;20.60;67.40;;;;;;5032031;28;1080;-66
2021/06/13 03:25:55;;;;;;;;;;;20.60;67.50;;;;;;5024023;28;1489;-66
2021/06/13 03:28:21;;;;;;;;;;;20.60;67.30;;;;;;5032396;28;1136;-66
2021/06/13 03:30:47;;;;;;;;;;;20.70;67.50;;;;;;5032018;28;1130;-66
2021/06/13 03:33:12;;;;;;;;;;;20.70;67.40;;;;;;5031760;28;1231;-67
2021/06/13 03:35:37;;;;;;;;;;;20.60;67.40;;;;;;5031895;28;1902;-67
2021/06/13 03:38:03;;;;;;;;;;;20.60;67.30;;;;;;5032049;28;1323;-67
2021/06/13 03:40:28;;;;;;;;;;;20.70;67.50;;;;;;5031631;28;1111;-67
2021/06/13 03:42:54;;;;;;;;;;;20.60;67.40;;;;;;5047868;28;1207;-67
2021/06/13 03:45:20;;;;;;;;;;;20.70;67.50;;;;;;5031866;28;1107;-66
2021/06/13 03:47:45;;;;;;;;;;;20.70;67.50;;;;;;5033441;28;1119;-66
2021/06/13 03:50:11;;;;;;;;;;;20.70;67.50;;;;;;5031902;28;1115;-67
2021/06/13 03:52:37;;;;;;;;;;;20.70;67.50;;;;;;5031742;28;1232;-66
2021/06/13 03:55:03;;;;;;;;;;;20.70;67.40;;;;;;5047288;28;1278;-66
2021/06/13 03:57:28;;;;;;;;;;;20.60;67.40;;;;;;5032985;28;1890;-66
2021/06/13 03:59:54;;;;;;;;;;;20.70;67.60;;;;;;5031914;28;1076;-67
2021/06/13 04:02:20;;;;;;;;;;;20.60;67.50;;;;;;5031489;28;1216;-67
2021/06/13 04:04:49;;;;;;;;;;;20.60;67.50;;;;;;5031930;28;1051;-67
2021/06/13 04:07:14;;;;;;;;;;;20.70;67.60;;;;;;5031686;28;1123;-67
2021/06/13 04:09:40;;;;;;;;;;;20.70;67.50;;;;;;5032206;28;1158;-67
2021/06/13 04:12:06;;;;;;;;;;;20.70;67.60;;;;;;5030953;28;1613;-67
2021/06/13 04:14:31;;;;;;;;;;;20.60;67.50;;;;;;5032033;28;1146;-67
2021/06/13 04:16:57;;;;;;;;;;;20.60;67.40;;;;;;5032767;28;1968;-67
2021/06/13 04:19:22;;;;;;;;;;;20.70;67.60;;;;;;5047612;28;1103;-67
2021/06/13 04:21:47;;;;;;;;;;;20.60;67.60;;;;;;5037714;28;1276;-67
2021/06/13 04:24:15;;;;;;;;;;;20.60;67.50;;;;;;5027836;28;1127;-68
2021/06/13 04:26:41;;;;;;;;;;;20.60;67.60;;;;;;5035794;28;1136;-67
2021/06/13 04:29:06;;;;;;;;;;;20.60;67.50;;;;;;5029440;28;1170;-67
2021/06/13 04:31:31;;;;;;;;;;;20.60;67.50;;;;;;5032596;28;1276;-67
2021/06/13 04:33:58;;;;;;;;;;;20.60;67.60;;;;;;5031964;28;1175;-68
2021/06/13 04:36:23;;;;;;;;;;;20.60;67.50;;;;;;5031198;28;1914;-68
2021/06/13 04:38:49;;;;;;;;;;;20.60;67.60;;;;;;5031639;28;1091;-68
2021/06/13 04:41:14;;;;;;;;;;;20.60;67.60;;;;;;5032291;28;1355;-68
2021/06/13 04:43:40;;;;;;;;;;;20.60;67.60;;;;;;5031637;28;1099;-66
2021/06/13 04:46:05;;;;;;;;;;;20.60;67.50;;;;;;5032131;28;1095;-66
2021/06/13 04:48:31;;;;;;;;;;;20.60;67.60;;;;;;5031250;28;1088;-66
2021/06/13 04:51:01;;;;;;;;;;;20.60;67.60;;;;;;5030884;28;1365;-67
2021/06/13 04:53:46;;;;;;;;;;;20.60;67.60;;;;;;5030208;28;1230;-66
2021/06/13 04:56:14;;;;;;;;;;;20.60;67.60;;;;;;5032349;28;1905;-66
2021/06/13 04:58:39;;;;;;;;;;;20.60;67.60;;;;;;5030612;28;1252;-67
2021/06/13 05:01:04;;;;;;;;;;;20.60;67.50;;;;;;5031924;28;1784;-66
2021/06/13 05:03:30;;;;;;;;;;;20.60;67.60;;;;;;5032015;28;1184;-65
2021/06/13 05:05:56;;;;;;;;;;;20.60;67.70;;;;;;5032264;28;1068;-66
2021/06/13 05:08:21;;;;;;;;;;;20.60;67.60;;;;;;5032259;28;1139;-64
2021/06/13 05:10:46;;;;;;;;;;;20.60;67.60;;;;;;5046879;28;1104;-65
2021/06/13 05:13:15;;;;;;;;;;;20.60;67.60;;;;;;5030184;28;1261;-65
2021/06/13 05:15:41;;;;;;;;;;;20.60;67.60;;;;;;5032448;28;1975;-64
2021/06/13 05:18:06;;;;;;;;;;;20.60;67.50;;;;;;5030932;28;1225;-64
2021/06/13 05:20:31;;;;;;;;;;;20.60;67.60;;;;;;5027142;28;1118;-64
2021/06/13 05:23:01;;;;;;;;;;;20.60;67.50;;;;;;5046278;28;1142;-65
2021/06/13 05:25:27;;;;;;;;;;;20.60;67.60;;;;;;5043795;28;1052;-66
2021/06/13 05:27:53;;;;;;;;;;;20.60;67.60;;;;;;5031663;28;1135;-67
2021/06/13 05:30:19;;;;;;;;;;;20.60;67.60;;;;;;5047117;28;1115;-68
2021/06/13 05:32:44;;;;;;;;;;;20.60;67.60;;;;;;5031906;28;1238;-67
2021/06/13 05:35:10;;;;;;;;;;;20.60;67.60;;;;;;5031191;28;1158;-67
2021/06/13 05:37:35;;;;;;;;;;;20.60;67.60;;;;;;5048312;28;1902;-67
2021/06/13 05:40:00;;;;;;;;;;;20.60;67.60;;;;;;5035453;28;1134;-66
2021/06/13 05:42:26;;;;;;;;;;;20.60;67.60;;;;;;5035815;28;1292;-66
2021/06/13 05:44:51;;;;;;;;;;;20.60;67.60;;;;;;5035424;28;1075;-66
2021/06/13 05:47:17;;;;;;;;;;;20.60;67.60;;;;;;5035414;28;1059;-67
2021/06/13 05:49:42;;;;;;;;;;;20.60;67.70;;;;;;5035091;28;1181;-67
2021/06/13 05:52:07;;;;;;;;;;;20.60;67.70;;;;;;5034990;28;1386;-67
2021/06/13 05:54:38;;;;;;;;;;;20.60;67.70;;;;;;5035402;28;1051;-65
2021/06/13 05:57:04;;;;;;;;;;;20.60;67.70;;;;;;5050372;28;1949;-67
2021/06/13 05:59:29;;;;;;;;;;;20.60;67.70;;;;;;5050594;28;1176;-67
2021/06/13 06:01:55;;;;;;;;;;;20.60;67.70;;;;;;5050178;28;1373;-66
2021/06/13 06:04:20;;;;;;;;;;;20.60;67.60;;;;;;5034128;28;1130;-66
2021/06/13 06:06:46;;;;;;;;;;;20.60;67.70;;;;;;5049960;28;1123;-69
2021/06/13 06:09:11;;;;;;;;;;;20.60;67.90;;;;;;5050449;28;1154;-66
2021/06/13 06:11:41;;;;;;;;;;;20.60;67.80;;;;;;5034867;28;1290;-65
2021/06/13 06:14:07;;;;;;;;;;;20.60;67.80;;;;;;5022477;28;1931;-63
2021/06/13 06:16:32;;;;;;;;;;;20.60;67.80;;;;;;5035020;28;2003;-64
2021/06/13 06:18:58;;;;;;;;;;;20.60;67.80;;;;;;5043022;28;1122;-64
2021/06/13 06:21:24;;;;;;;;;;;20.60;67.70;;;;;;5038349;28;2743;-65
2021/06/13 06:23:49;;;;;;;;;;;20.60;67.70;;;;;;5046078;28;1236;-65
2021/06/13 06:26:15;;;;;;;;;;;20.60;67.60;;;;;;5028569;28;2008;-66
2021/06/13 06:28:40;;;;;;;;;;;20.60;67.60;;;;;;5044938;28;1098;-64
2021/06/13 06:31:05;;;;;;;;;;;20.60;67.60;;;;;;5038942;28;1414;-64
2021/06/13 06:33:31;;;;;;;;;;;20.60;67.50;;;;;;5032710;28;1067;-65
2021/06/13 06:35:57;;;;;;;;;;;20.60;67.50;;;;;;5033700;28;1914;-66
2021/06/13 06:38:23;;;;;;;;;;;20.60;67.50;;;;;;5034533;28;1126;-65
2021/06/13 06:40:48;;;;;;;;;;;20.60;67.50;;;;;;5049045;28;1910;-66
2021/06/13 06:43:14;;;;;;;;;;;20.60;67.60;;;;;;5035991;28;1378;-66
2021/06/13 06:45:39;;;;;;;;;;;20.60;67.60;;;;;;5043085;28;1233;-65
2021/06/13 06:48:05;;;;;;;;;;;20.60;67.70;;;;;;5039818;28;1145;-64
2021/06/13 06:50:30;;;;;;;;;;;20.60;67.70;;;;;;5034672;28;1039;-64
2021/06/13 06:52:56;;;;;;;;;;;20.60;67.70;;;;;;5048833;28;1281;-65
2021/06/13 06:55:21;;;;;;;;;;;20.60;68.40;;;;;;5034073;28;1201;-67
2021/06/13 06:57:47;;;;;;;;;;;20.60;67.60;;;;;;5033437;28;1902;-66
2021/06/13 07:00:14;;;;;;;;;;;20.60;67.60;;;;;;5049217;28;1272;-66
2021/06/13 07:02:39;;;;;;;;;;;20.60;67.70;;;;;;5034188;28;1291;-66
2021/06/13 07:05:05;;;;;;;;;;;20.60;67.70;;;;;;5033839;28;1197;-67
2021/06/13 07:07:30;;;;;;;;;;;20.60;67.70;;;;;;5033484;28;1153;-66
2021/06/13 07:09:56;;;;;;;;;;;20.60;67.70;;;;;;5033900;28;1146;-65
2021/06/13 07:12:21;;;;;;;;;;;20.60;67.70;;;;;;5033260;28;1361;-66
2021/06/13 07:14:46;;;;;;;;;;;20.60;67.70;;;;;;5033072;28;1205;-66
2021/06/13 07:17:12;;;;;;;;;;;20.60;67.70;;;;;;5033171;28;1902;-66
2021/06/13 07:19:37;;;;;;;;;;;20.60;67.70;;;;;;5033585;28;1131;-67
2021/06/13 07:22:03;;;;;;;;;;;20.60;67.70;;;;;;5028406;28;1295;-66
2021/06/13 07:24:29;;;;;;;;;;;20.60;67.80;;;;;;5033029;28;1245;-66
2021/06/13 07:26:54;;;;;;;;;;;20.60;67.70;;;;;;5025941;28;1316;-65
2021/06/13 07:29:20;;;;;;;;;;;20.60;67.70;;;;;;5033155;28;1067;-66
2021/06/13 07:31:45;;;;;;;;;;;20.60;67.70;;;;;;5048736;28;1379;-65
2021/06/13 07:34:11;;;;;;;;;;;20.60;67.70;;;;;;5048174;28;1126;-65
2021/06/13 07:36:36;;;;;;;;;;;20.60;67.70;;;;;;5032950;28;1959;-65
2021/06/13 07:39:04;;;;;;;;;;;20.60;67.70;;;;;;5033319;28;1067;-66
2021/06/13 07:41:30;;;;;;;;;;;20.60;67.70;;;;;;5033868;28;1346;-66
2021/06/13 07:43:55;;;;;;;;;;;20.60;67.70;;;;;;5032570;28;1090;-67
2021/06/13 07:46:21;;;;;;;;;;;20.60;67.70;;;;;;5032851;28;1146;-64
2021/06/13 07:48:46;;;;;;;;;;;20.60;67.70;;;;;;5048350;28;1162;-64
2021/06/13 07:51:11;;;;;;;;;;;20.60;67.70;;;;;;5033038;28;1265;-66
2021/06/13 07:53:43;;;;;;;;;;;20.60;67.60;;;;;;5032462;28;1087;-66
2021/06/13 07:56:10;;;;;;;;;;;20.60;67.60;;;;;;5047542;28;1967;-65
2021/06/13 07:58:35;;;;;;;;;;;20.60;67.70;;;;;;5047948;28;1165;-65
2021/06/13 08:01:01;;;;;;;;;;;20.60;67.70;;;;;;5047819;28;1439;-65
2021/06/13 08:03:26;;;;;;;;;;;20.60;67.70;;;;;;5031790;28;1158;-67
2021/06/13 08:05:52;;;;;;;;;;;20.60;67.70;;;;;;5032957;28;1138;-65
2021/06/13 08:08:17;;;;;;;;;;;20.60;67.70;;;;;;5033061;28;1544;-66
2021/06/13 08:10:43;;;;;;;;;;;20.60;67.60;;;;;;5048116;28;1083;-66
2021/06/13 08:13:08;;;;;;;;;;;20.60;67.60;;;;;;5031683;28;1300;-66
2021/06/13 08:15:34;;;;;;;;;;;20.60;67.60;;;;;;5032714;28;1902;-66
2021/06/13 08:17:59;;;;;;;;;;;20.60;67.60;;;;;;5033186;28;1079;-65
2021/06/13 08:20:25;;;;;;;;;;;20.60;67.60;;;;;;5028447;28;1095;-67
2021/06/13 08:22:50;;;;;;;;;;;20.60;67.60;;;;;;5030592;28;1275;-66
2021/06/13 08:25:16;;;;;;;;;;;20.60;67.60;;;;;;5026047;28;1079;-66
2021/06/13 08:27:41;;;;;;;;;;;20.60;67.60;;;;;;5047152;28;1234;-66
2021/06/13 08:30:07;;;;;;;;;;;20.60;67.60;;;;;;5032368;28;1130;-66
2021/06/13 08:32:33;;;;;;;;;;;20.60;67.60;;;;;;5032411;28;1389;-66
2021/06/13 08:34:58;;;;;;;;;;;20.60;67.70;;;;;;5047946;28;1095;-65
2021/06/13 08:37:23;;;;;;;;;;;20.60;67.70;;;;;;5032675;28;1914;-66
2021/06/13 08:39:50;;;;;;;;;;;20.60;67.60;;;;;;5032693;28;1099;-65
2021/06/13 08:42:16;;;;;;;;;;;20.60;67.70;;;;;;5031180;28;1288;-67
2021/06/13 08:44:41;;;;;;;;;;;20.60;67.70;;;;;;5031781;28;1071;-65
2021/06/13 08:47:08;;;;;;;;;;;20.60;67.70;;;;;;5047683;28;1170;-66
2021/06/13 08:49:33;;;;;;;;;;;20.60;67.70;;;;;;5032426;28;1115;-65
2021/06/13 08:51:58;;;;;;;;;;;20.60;67.70;;;;;;5032190;28;1204;-65
2021/06/13 08:54:24;;;;;;;;;;;20.60;67.70;;;;;;5032330;28;1016;-67
2021/06/13 08:56:49;;;;;;;;;;;20.60;67.70;;;;;;5032269;28;1969;-65
2021/06/13 08:59:15;;;;;;;;;;;20.60;67.60;;;;;;5031990;28;1070;-65
2021/06/13 09:01:40;;;;;;;;;;;20.60;67.60;;;;;;5047613;28;1305;-66
2021/06/13 09:04:06;;;;;;;;;;;20.60;67.50;;;;;;5031071;28;1135;-65
2021/06/13 09:06:31;;;;;;;;;;;20.60;67.20;;;;;;5023612;28;1087;-65
2021/06/13 09:08:58;;;;;;;;;;;20.60;67.20;;;;;;5042307;28;1224;-66
2021/06/13 09:11:24;;;;;;;;;;;20.60;67.30;;;;;;5020348;28;1265;-65
2021/06/13 09:13:50;;;;;;;;;;;20.60;67.20;;;;;;5041191;28;1220;-66
2021/06/13 09:16:15;;;;;;;;;;;20.60;67.40;;;;;;5027339;28;1956;-66
2021/06/13 09:18:42;;;;;;;;;;;20.60;67.50;;;;;;5040494;28;1200;-66
2021/06/13 09:21:08;;;;;;;;;;;20.60;67.40;;;;;;5027219;28;1385;-66
2021/06/13 09:23:35;;;;;;;;;;;20.60;67.50;;;;;;5049231;28;1190;-65
2021/06/13 09:26:04;;;;;;;;;;;20.60;67.40;;;;;;5026212;28;1112;-66
2021/06/13 09:28:30;;;;;;;;;;;20.60;67.40;;;;;;5023624;28;1056;-67
2021/06/13 09:30:56;;;;;;;;;;;20.60;67.40;;;;;;5046424;28;1385;-65
2021/06/13 09:33:31;;;;;;;;;;;20.60;67.40;;;;;;5026647;28;1150;-65
2021/06/13 09:35:57;;;;;;;;;;;20.60;67.50;;;;;;5035760;28;1910;-66
2021/06/13 09:38:29;;;;;;;;;;;20.60;67.60;;;;;;5035546;28;1079;-66
2021/06/13 09:40:57;;;;;;;;;;;20.60;67.60;;;;;;5035472;28;1303;-66
2021/06/13 09:43:26;;;;;;;;;;;20.60;67.50;;;;;;5042757;28;1263;-65
2021/06/13 09:45:58;;;;;;;;;;;20.60;67.50;;;;;;5035176;28;1137;-65
2021/06/13 09:48:24;;;;;;;;;;;20.60;67.60;;;;;;5035419;28;1060;-66
2021/06/13 09:50:50;;;;;;;;;;;20.60;67.60;;;;;;5035661;28;1071;-66
2021/06/13 09:53:23;;;;;;;;;;;20.60;67.60;;;;;;5033121;28;1377;-67
2021/06/13 09:55:59;;;;;;;;;;;20.60;67.60;;;;;;5035120;28;1902;-66
2021/06/13 09:58:24;;;;;;;;;;;20.60;67.70;;;;;;5035272;28;1055;-68
2021/06/13 10:00:50;;;;;;;;;;;20.60;67.60;;;;;;5033960;28;1127;-65
2021/06/13 10:03:19;;;;;;;;;;;20.60;67.60;;;;;;5034327;28;1232;-65
2021/06/13 10:05:55;;;;;;;;;;;20.60;67.60;;;;;;5033636;28;1084;-66
2021/06/13 10:08:20;;;;;;;;;;;20.60;67.60;;;;;;5035128;28;1087;-65
2021/06/13 10:10:45;;;;;;;;;;;20.60;67.60;;;;;;5035400;28;1047;-65
2021/06/13 10:13:11;;;;;;;;;;;20.60;67.60;;;;;;5034339;28;1212;-68
2021/06/13 10:15:36;;;;;;;;;;;20.60;67.60;;;;;;5033310;28;2006;-65
2021/06/13 10:18:08;;;;;;;;;;;20.60;67.60;;;;;;5034764;28;1174;-65
2021/06/13 10:20:34;;;;;;;;;;;20.60;67.70;;;;;;5029203;28;1142;-65
2021/06/13 10:22:59;;;;;;;;;;;20.60;67.70;;;;;;5048751;28;1227;-69
2021/06/13 10:25:25;;;;;;;;;;;20.60;67.60;;;;;;5027385;28;1137;-66
2021/06/13 10:27:50;;;;;;;;;;;20.60;67.60;;;;;;5049997;28;1083;-66
2021/06/13 10:30:16;;;;;;;;;;;20.60;67.60;;;;;;5049812;28;1083;-68
2021/06/13 10:32:41;;;;;;;;;;;20.60;67.60;;;;;;5034786;28;1604;-66
2021/06/13 10:35:07;;;;;;;;;;;20.60;67.60;;;;;;5033761;28;1076;-70
2021/06/13 10:37:32;;;;;;;;;;;20.60;67.60;;;;;;5049733;28;1950;-66
2021/06/13 10:39:58;;;;;;;;;;;20.60;67.60;;;;;;5034364;28;1051;-68
2021/06/13 10:42:24;;;;;;;;;;;20.60;67.60;;;;;;5034368;28;1300;-69
2021/06/13 10:44:50;;;;;;;;;;;20.60;67.60;;;;;;5049224;28;1115;-66
2021/06/13 10:47:16;;;;;;;;;;;20.60;67.70;;;;;;5049242;28;1273;-66
2021/06/13 10:49:42;;;;;;;;;;;20.60;67.60;;;;;;5034207;28;1082;-66
2021/06/13 10:52:08;;;;;;;;;;;20.60;67.60;;;;;;5034256;28;1295;-66
2021/06/13 10:54:35;;;;;;;;;;;20.60;67.60;;;;;;5033710;28;1142;-65
2021/06/13 10:57:04;;;;;;;;;;;20.60;67.60;;;;;;5034249;28;1910;-66
2021/06/13 10:59:32;;;;;;;;;;;20.60;67.60;;;;;;5033942;28;1114;-65
2021/06/13 11:02:19;;;;;;;;;;;20.60;67.60;;;;;;5049169;28;1334;-67
2021/06/13 11:04:51;;;;;;;;;;;20.60;67.60;;;;;;5040888;28;2105;-68
2021/06/13 11:10:03;;;;;;;;;;;20.60;67.60;;;;;;5043547;28;1055;-66
2021/06/13 11:12:48;;;;;;;;;;;20.60;67.60;;;;;;5037537;28;1320;-67
2021/06/13 11:15:41;;;;;;;;;;;20.60;67.70;;;;;;5028571;28;1048;-67
2021/06/13 11:18:18;;;;;;;;;;;20.60;67.60;;;;;;5025449;28;1886;-65
2021/06/13 11:23:12;;;;;;;;;;;20.60;67.60;;;;;;5039564;28;1290;-65
2021/06/13 11:25:38;;;;;;;;;;;20.60;67.50;;;;;;5047887;28;1083;-66
2021/06/13 11:28:11;;;;;;;;;;;20.60;67.60;;;;;;5033492;28;1130;-68
2021/06/13 11:30:40;;;;;;;;;;;20.60;67.60;;;;;;5033646;28;1070;-66
2021/06/13 11:33:06;;;;;;;;;;;20.60;67.60;;;;;;5047595;28;1223;-66
2021/06/13 11:35:35;;;;;;;;;;;20.60;67.60;;;;;;5032183;28;1195;-65
2021/06/13 11:38:13;;;;;;;;;;;20.60;67.50;;;;;;5033192;28;1067;-66
2021/06/13 11:40:45;;;;;;;;;;;20.60;67.60;;;;;;5020323;28;1175;-67
2021/06/13 11:43:11;;;;;;;;;;;20.60;67.60;;;;;;5031125;28;1326;-66
2021/06/13 11:45:37;;;;;;;;;;;20.60;67.60;;;;;;5031921;28;1135;-67
2021/06/13 11:48:18;;;;;;;;;;;20.60;67.60;;;;;;5031951;28;1088;-65
2021/06/13 11:50:44;;;;;;;;;;;20.60;67.40;;;;;;5033352;28;1039;-64
2021/06/13 11:53:11;;;;;;;;;;;20.60;67.40;;;;;;5032153;28;1205;-65
2021/06/13 11:55:52;;;;;;;;;;;20.60;67.40;;;;;;5047900;28;1965;-65
2021/06/13 11:58:18;;;;;;;;;;;20.60;67.50;;;;;;5033081;28;1039;-66
2021/06/13 12:00:43;;;;;;;;;;;20.60;67.60;;;;;;5033487;28;1135;-65
2021/06/13 12:03:10;;;;;;;;;;;20.60;67.50;;;;;;5032127;28;1193;-64
2021/06/13 12:05:35;;;;;;;;;;;20.60;67.50;;;;;;5028818;28;1295;-66
2021/06/13 12:08:00;;;;;;;;;;;20.60;67.50;;;;;;5024379;28;1339;-64
2021/06/13 12:10:31;;;;;;;;;;;20.60;67.40;;;;;;5022944;28;1279;-65
2021/06/13 12:13:06;;;;;;;;;;;20.60;67.30;;;;;;5019413;28;1316;-64
2021/06/13 12:15:32;;;;;;;;;;;20.60;67.30;;;;;;5025982;28;1084;-65
2021/06/13 12:17:57;;;;;;;;;;;20.60;67.40;;;;;;5017547;28;1958;-66
2021/06/13 12:20:22;;;;;;;;;;;20.60;67.30;;;;;;5022831;28;1515;-66
2021/06/13 12:28:28;;;;;;;;;;;20.60;67.60;;;;;;5044931;28;1059;-63
2021/06/13 12:30:53;;;;;;;;;;;20.60;67.60;;;;;;5037903;28;1785;-63
2021/06/13 12:33:19;;;;;;;;;;;20.60;67.60;;;;;;5028420;28;1883;-66
2021/06/13 12:35:46;;;;;;;;;;;20.60;67.60;;;;;;5033203;28;1894;-64
2021/06/13 12:38:11;;;;;;;;;;;20.50;67.50;;;;;;5038678;28;1095;-64
2021/06/13 12:40:42;;;;;;;;;;;20.60;67.70;;;;;;5045754;28;1181;-64
2021/06/13 12:43:07;;;;;;;;;;;20.60;67.80;;;;;;5041495;28;1533;-65
2021/06/13 12:45:33;;;;;;;;;;;20.60;67.70;;;;;;5030585;28;1027;-68
2021/06/13 12:47:59;;;;;;;;;;;20.60;67.70;;;;;;5051221;28;1318;-68
2021/06/13 12:50:33;;;;;;;;;;;20.60;67.70;;;;;;5029420;28;1068;-70
2021/06/13 12:52:59;;;;;;;;;;;20.60;67.80;;;;;;5029309;28;1294;-65
2021/06/13 12:55:25;;;;;;;;;;;20.50;67.70;;;;;;5029794;28;1271;-64
2021/06/13 12:57:52;;;;;;;;;;;20.60;67.70;;;;;;5031105;28;1907;-65
2021/06/13 13:00:17;;;;;;;;;;;20.60;67.70;;;;;;5030432;28;1182;-68
2021/06/13 13:02:43;;;;;;;;;;;20.60;67.80;;;;;;5022872;28;1306;-68
2021/06/13 13:05:13;;;;;;;;;;;20.60;67.80;;;;;;5042743;28;1108;-68
2021/06/13 13:07:41;;;;;;;;;;;20.60;67.70;;;;;;5027599;28;995;-68
2021/06/13 13:10:10;;;;;;;;;;;20.60;67.80;;;;;;5030236;28;995;-68
2021/06/13 13:12:36;;;;;;;;;;;20.60;67.70;;;;;;5029978;28;1221;-68
2021/06/13 13:15:11;;;;;;;;;;;20.60;67.80;;;;;;5028213;28;1229;-68
2021/06/13 13:17:36;;;;;;;;;;;20.60;67.80;;;;;;5031333;28;1957;-68
2021/06/13 13:20:32;;;;;;;;;;;20.60;67.80;;;;;;5028847;28;1142;-68
2021/06/13 13:23:10;;;;;;;;;;;20.60;67.60;;;;;;5014998;28;1295;-69
2021/06/13 13:25:38;;;;;;;;;;;20.60;67.50;;;;;;5020207;28;1143;-70
2021/06/13 13:28:22;;;;;;;;;;;20.60;67.50;;;;;;5030879;28;1107;-68
2021/06/13 13:30:48;;;;;;;;;;;20.60;67.50;;;;;;5045947;28;1059;-68
2021/06/13 13:33:14;;;;;;;;;;;20.60;67.40;;;;;;5045359;28;1194;-65
2021/06/13 13:35:41;;;;;;;;;;;20.50;67.40;;;;;;5053086;22;3691;-71
2021/06/13 13:38:07;;;;;;;;;;;20.60;67.60;;;;;;5006532;28;2076;-72
2021/06/13 13:40:33;;;;;;;;;;;20.50;67.30;;;;;;5031214;28;1182;-72
2021/06/13 13:43:02;;;;;;;;;;;20.60;67.50;;;;;;5012971;28;1353;-73
2021/06/13 13:45:28;;;;;;;;;;;20.60;67.40;;;;;;5032044;28;1661;-72
2021/06/13 13:47:54;;;;;;;;;;;20.50;67.30;;;;;;5029980;28;1662;-71
2021/06/13 13:50:32;;;;;;;;;;;20.50;67.30;;;;;;5031954;28;1167;-71
2021/06/13 13:52:58;;;;;;;;;;;20.60;67.40;;;;;;5030875;28;1367;-72
2021/06/13 13:55:24;;;;;;;;;;;20.60;67.30;;;;;;5030093;28;1725;-72
2021/06/13 13:57:50;;;;;;;;;;;20.60;67.30;;;;;;5031816;28;1886;-72
2021/06/13 14:00:15;;;;;;;;;;;20.60;67.30;;;;;;5034457;28;1485;-72
2021/06/13 14:02:41;;;;;;;;;;;20.60;67.60;;;;;;5035692;28;1193;-72
2021/06/13 14:05:06;;;;;;;;;;;20.50;67.40;;;;;;5033973;28;1292;-72
2021/06/13 14:07:33;;;;;;;;;;;20.60;67.50;;;;;;5035294;28;1706;-72
2021/06/13 14:09:59;;;;;;;;;;;20.60;67.50;;;;;;5034457;28;1436;-72
2021/06/13 14:12:24;;;;;;;;;;;20.60;67.50;;;;;;5030464;28;1418;-72
2021/06/13 14:14:50;;;;;;;;;;;20.60;67.50;;;;;;5029751;28;1420;-72
2021/06/13 14:17:15;;;;;;;;;;;20.60;67.70;;;;;;5033757;28;1883;-72
2021/06/13 14:19:40;;;;;;;;;;;20.60;67.70;;;;;;5035133;28;1665;-72
2021/06/13 14:22:06;;;;;;;;;;;20.60;67.70;;;;;;5021772;28;1428;-72
2021/06/13 14:24:31;;;;;;;;;;;20.60;67.70;;;;;;5013454;28;1492;-73
2021/06/13 14:26:57;;;;;;;;;;;20.60;67.60;;;;;;5032936;28;1419;-72
2021/06/13 14:29:23;;;;;;;;;;;20.60;67.60;;;;;;5034871;28;1724;-72
2021/06/13 14:31:49;;;;;;;;;;;20.50;67.60;;;;;;5034995;28;1377;-72
2021/06/13 14:34:15;;;;;;;;;;;20.60;67.80;;;;;;5033033;28;1714;-73
2021/06/13 14:36:40;;;;;;;;;;;20.50;67.80;;;;;;5034357;28;1973;-72
2021/06/13 14:39:06;;;;;;;;;;;20.50;67.70;;;;;;5033602;28;1470;-73
2021/06/13 14:41:31;;;;;;;;;;;20.60;67.80;;;;;;5034730;28;1417;-73